sensor_id;sensor_type;location;lat;lon;timestamp;pressure;altitude;pressure_sealevel;temperature;humidity
54546;BME280;40444;45.184;9.850;2023-03-04T00:00:15;101169.09;;;6.86;100.00
54546;BME280;40444;45.184;9.850;2023-03-04T00:02:43;101165.75;;;6.82;100.00
54546;BME280;40444;45.184;9.850;2023-03-04T00:05:12;101164.06;;;6.81;100.00
54546;BME280;40444;45.184;9.850;2023-03-04T00:07:40;101155.22;;;6.80;100.00
54546;BME280;40444;45.184;9.850;2023-03-04T00:10:09;101156.06;;;6.81;100.00
54546;BME280;40444;45.184;9.850;2023-03-04T00:12:37;101163.22;;;6.80;100.00
54546;BME280;40444;45.184;9.850;2023-03-04T00:15:06;101165.88;;;6.80;100.00
54546;BME280;40444;45.184;9.850;2023-03-04T00:17:34;101159.78;;;6.78;100.00
54546;BME280;40444;45.184;9.850;2023-03-04T00:20:03;101166.16;;;6.76;100.00
54546;BME280;40444;45.184;9.850;2023-03-04T00:22:31;101167.97;;;6.75;100.00
54546;BME280;40444;45.184;9.850;2023-03-04T00:24:59;101164.47;;;6.75;100.00
54546;BME280;40444;45.184;9.850;2023-03-04T00:27:27;101166.59;;;6.70;100.00
54546;BME280;40444;45.184;9.850;2023-03-04T00:29:56;101172.16;;;6.65;100.00
54546;BME280;40444;45.184;9.850;2023-03-04T00:32:24;101166.22;;;6.62;100.00
54546;BME280;40444;45.184;9.850;2023-03-04T00:34:52;101166.28;;;6.60;100.00
54546;BME280;40444;45.184;9.850;2023-03-04T00:37:20;101162.03;;;6.57;100.00
54546;BME280;40444;45.184;9.850;2023-03-04T00:39:49;101172.75;;;6.56;100.00
54546;BME280;40444;45.184;9.850;2023-03-04T00:42:17;101172.00;;;6.54;100.00
54546;BME280;40444;45.184;9.850;2023-03-04T00:44:46;101161.66;;;6.49;100.00
54546;BME280;40444;45.184;9.850;2023-03-04T00:47:14;101164.63;;;6.45;100.00
54546;BME280;40444;45.184;9.850;2023-03-04T00:49:42;101169.28;;;6.41;100.00
54546;BME280;40444;45.184;9.850;2023-03-04T00:52:11;101157.09;;;6.37;100.00
54546;BME280;40444;45.184;9.850;2023-03-04T00:54:39;101160.63;;;6.38;100.00
54546;BME280;40444;45.184;9.850;2023-03-04T00:57:07;101157.09;;;6.37;100.00
54546;BME280;40444;45.184;9.850;2023-03-04T00:59:35;101159.88;;;6.36;100.00
54546;BME280;40444;45.184;9.850;2023-03-04T01:02:04;101159.97;;;6.34;100.00
54546;BME280;40444;45.184;9.850;2023-03-04T01:04:32;101155.69;;;6.31;100.00
54546;BME280;40444;45.184;9.850;2023-03-04T01:07:00;101150.56;;;6.28;100.00
54546;BME280;40444;45.184;9.850;2023-03-04T01:09:29;101150.66;;;6.27;100.00
54546;BME280;40444;45.184;9.850;2023-03-04T01:11:59;101154.28;;;6.26;100.00
54546;BME280;40444;45.184;9.850;2023-03-04T01:14:27;101152.53;;;6.25;100.00
54546;BME280;40444;45.184;9.850;2023-03-04T01:16:55;101155.50;;;6.20;100.00
54546;BME280;40444;45.184;9.850;2023-03-04T01:19:24;101154.94;;;6.15;100.00
54546;BME280;40444;45.184;9.850;2023-03-04T01:21:52;101147.63;;;6.04;100.00
54546;BME280;40444;45.184;9.850;2023-03-04T01:24:21;101148.03;;;5.98;100.00
54546;BME280;40444;45.184;9.850;2023-03-04T01:26:49;101151.72;;;5.96;100.00
54546;BME280;40444;45.184;9.850;2023-03-04T01:29:18;101145.63;;;5.94;100.00
54546;BME280;40444;45.184;9.850;2023-03-04T01:31:46;101146.56;;;5.93;100.00
54546;BME280;40444;45.184;9.850;2023-03-04T01:34:14;101143.06;;;5.92;100.00
54546;BME280;40444;45.184;9.850;2023-03-04T01:36:42;101143.06;;;5.92;100.00
54546;BME280;40444;45.184;9.850;2023-03-04T01:39:11;101146.63;;;5.91;100.00
54546;BME280;40444;45.184;9.850;2023-03-04T01:41:39;101139.53;;;5.92;100.00
54546;BME280;40444;45.184;9.850;2023-03-04T01:44:08;101133.34;;;5.91;100.00
54546;BME280;40444;45.184;9.850;2023-03-04T01:46:41;101138.59;;;5.93;100.00
54546;BME280;40444;45.184;9.850;2023-03-04T01:49:13;101127.88;;;5.94;100.00
54546;BME280;40444;45.184;9.850;2023-03-04T01:51:44;101128.72;;;5.95;100.00
54546;BME280;40444;45.184;9.850;2023-03-04T01:54:13;101132.41;;;5.92;100.00
54546;BME280;40444;45.184;9.850;2023-03-04T01:56:44;101126.31;;;5.90;100.00
54546;BME280;40444;45.184;9.850;2023-03-04T01:59:24;101125.47;;;5.90;100.00
54546;BME280;40444;45.184;9.850;2023-03-04T02:01:55;101124.59;;;5.89;100.00
54546;BME280;40444;45.184;9.850;2023-03-04T02:04:27;101121.06;;;5.89;100.00
54546;BME280;40444;45.184;9.850;2023-03-04T02:06:57;101121.94;;;5.89;100.00
54546;BME280;40444;45.184;9.850;2023-03-04T02:09:28;101121.84;;;5.91;100.00
54546;BME280;40444;45.184;9.850;2023-03-04T02:11:57;101113.03;;;5.90;100.00
54546;BME280;40444;45.184;9.850;2023-03-04T02:14:25;101114.16;;;5.86;100.00
54546;BME280;40444;45.184;9.850;2023-03-04T02:16:55;101110.09;;;5.80;100.00
54546;BME280;40444;45.184;9.850;2023-03-04T02:21:57;101108.06;;;5.70;100.00
54546;BME280;40444;45.184;9.850;2023-03-04T02:24:34;101111.84;;;5.66;100.00
54546;BME280;40444;45.184;9.850;2023-03-04T02:27:04;101112.13;;;5.61;100.00
54546;BME280;40444;45.184;9.850;2023-03-04T02:29:32;101111.94;;;5.50;100.00
54546;BME280;40444;45.184;9.850;2023-03-04T02:32:00;101111.13;;;5.33;100.00
54546;BME280;40444;45.184;9.850;2023-03-04T02:34:31;101123.44;;;5.20;100.00
54546;BME280;40444;45.184;9.850;2023-03-04T02:37:01;101116.00;;;5.11;100.00
54546;BME280;40444;45.184;9.850;2023-03-04T02:39:33;101118.09;;;5.06;100.00
54546;BME280;40444;45.184;9.850;2023-03-04T02:42:02;101116.56;;;5.02;100.00
54546;BME280;40444;45.184;9.850;2023-03-04T02:44:36;101116.81;;;4.97;100.00
54546;BME280;40444;45.184;9.850;2023-03-04T02:47:07;101115.44;;;4.90;100.00
54546;BME280;40444;45.184;9.850;2023-03-04T02:49:38;101107.84;;;4.84;100.00
54546;BME280;40444;45.184;9.850;2023-03-04T02:52:18;101118.72;;;4.79;100.00
54546;BME280;40444;45.184;9.850;2023-03-04T02:54:47;101114.38;;;4.78;100.00
54546;BME280;40444;45.184;9.850;2023-03-04T02:57:16;101112.84;;;4.74;100.00
54546;BME280;40444;45.184;9.850;2023-03-04T02:59:49;101114.69;;;4.72;100.00
54546;BME280;40444;45.184;9.850;2023-03-04T03:02:21;101118.47;;;4.68;100.00
54546;BME280;40444;45.184;9.850;2023-03-04T03:04:50;101113.34;;;4.65;100.00
54546;BME280;40444;45.184;9.850;2023-03-04T03:07:20;101113.78;;;4.57;100.00
54546;BME280;40444;45.184;9.850;2023-03-04T03:09:51;101112.25;;;4.53;100.00
54546;BME280;40444;45.184;9.850;2023-03-04T03:12:19;101105.31;;;4.51;100.00
54546;BME280;40444;45.184;9.850;2023-03-04T03:14:48;101102.69;;;4.51;100.00
54546;BME280;40444;45.184;9.850;2023-03-04T03:17:19;101106.94;;;4.53;100.00
54546;BME280;40444;45.184;9.850;2023-03-04T03:19:47;101113.78;;;4.57;100.00
54546;BME280;40444;45.184;9.850;2023-03-04T03:22:16;101108.38;;;4.59;100.00
54546;BME280;40444;45.184;9.850;2023-03-04T03:24:44;101104.88;;;4.59;100.00
54546;BME280;40444;45.184;9.850;2023-03-04T03:27:12;101094.25;;;4.59;100.00
54546;BME280;40444;45.184;9.850;2023-03-04T03:29:41;101089.72;;;4.61;100.00
54546;BME280;40444;45.184;9.850;2023-03-04T03:32:09;101090.75;;;4.58;100.00
54546;BME280;40444;45.184;9.850;2023-03-04T03:34:37;101101.38;;;4.58;100.00
54546;BME280;40444;45.184;9.850;2023-03-04T03:37:05;101106.09;;;4.53;100.00
54546;BME280;40444;45.184;9.850;2023-03-04T03:39:33;101104.63;;;4.47;100.00
54546;BME280;40444;45.184;9.850;2023-03-04T03:42:01;101103.78;;;4.47;100.00
54546;BME280;40444;45.184;9.850;2023-03-04T03:44:30;101098.38;;;4.48;100.00
54546;BME280;40444;45.184;9.850;2023-03-04T03:46:58;101098.22;;;4.51;100.00
54546;BME280;40444;45.184;9.850;2023-03-04T03:49:26;101091.19;;;4.50;100.00
54546;BME280;40444;45.184;9.850;2023-03-04T03:51:54;101088.97;;;4.43;100.00
54546;BME280;40444;45.184;9.850;2023-03-04T03:54:23;101089.72;;;4.45;100.00
54546;BME280;40444;45.184;9.850;2023-03-04T03:56:51;101091.38;;;4.47;100.00
54546;BME280;40444;45.184;9.850;2023-03-04T03:59:19;101095.72;;;4.48;100.00
54546;BME280;40444;45.184;9.850;2023-03-04T04:01:47;101090.59;;;4.45;100.00
54546;BME280;40444;45.184;9.850;2023-03-04T04:04:15;101096.84;;;4.44;100.00
54546;BME280;40444;45.184;9.850;2023-03-04T04:06:43;101097.69;;;4.45;100.00
54546;BME280;40444;45.184;9.850;2023-03-04T04:09:11;101094.19;;;4.44;100.00
54546;BME280;40444;45.184;9.850;2023-03-04T04:11:39;101094.19;;;4.44;100.00
54546;BME280;40444;45.184;9.850;2023-03-04T04:14:10;101097.78;;;4.43;100.00
